createdAt,value
2022-08-28T00:00:33.150Z,2.50
2022-08-28T00:01:33.146Z,2.40
2022-08-28T00:02:33.160Z,2.70
2022-08-28T00:03:33.133Z,2.90
2022-08-28T00:04:33.285Z,2.80
2022-08-28T00:05:33.094Z,2.70
2022-08-28T00:06:33.080Z,2.50
2022-08-28T00:07:33.111Z,2.70
2022-08-28T00:08:33.074Z,2.90
2022-08-28T00:09:33.059Z,2.80
2022-08-28T00:10:33.074Z,2.80
2022-08-28T00:11:33.028Z,2.80
2022-08-28T00:12:33.013Z,2.90
2022-08-28T00:13:33.006Z,2.80
2022-08-28T00:14:32.993Z,2.40
2022-08-28T00:15:33.004Z,2.70
2022-08-28T00:16:33.062Z,2.30
2022-08-28T00:17:32.957Z,2.70
2022-08-28T00:18:32.954Z,2.50
2022-08-28T00:19:37.917Z,2.60
2022-08-28T00:20:33.995Z,2.40
2022-08-28T00:21:32.912Z,2.60
2022-08-28T00:22:33.764Z,2.50
2022-08-28T00:23:42.672Z,3.10
2022-08-28T00:24:33.879Z,2.40
2022-08-28T00:25:32.933Z,2.90
2022-08-28T00:26:32.897Z,2.90
2022-08-28T00:27:32.857Z,2.70
2022-08-28T00:28:32.840Z,2.80
2022-08-28T00:29:32.816Z,3.10
2022-08-28T00:30:32.815Z,2.80
2022-08-28T00:31:32.876Z,2.50
2022-08-28T00:32:32.829Z,2.90
2022-08-28T00:33:32.772Z,2.80
2022-08-28T00:34:33.384Z,2.50
2022-08-28T00:35:32.749Z,2.80
2022-08-28T00:36:32.734Z,2.60
2022-08-28T00:37:32.733Z,2.30
2022-08-28T00:38:32.802Z,2.50
2022-08-28T00:39:32.696Z,2.70
2022-08-28T00:40:33.875Z,2.80
2022-08-28T00:41:32.713Z,2.60
2022-08-28T00:42:32.675Z,2.90
2022-08-28T00:43:32.686Z,3.00
2022-08-28T00:44:32.643Z,2.40
2022-08-28T00:45:37.297Z,2.40
2022-08-28T00:46:33.635Z,2.90
2022-08-28T00:47:32.611Z,2.60
2022-08-28T00:48:32.637Z,2.60
2022-08-28T00:49:32.586Z,2.80
2022-08-28T00:50:32.572Z,2.80
2022-08-28T00:51:32.583Z,2.60
2022-08-28T00:52:32.555Z,2.80
2022-08-28T00:53:32.884Z,2.80
2022-08-28T00:54:32.797Z,2.40
2022-08-28T00:55:32.522Z,2.60
2022-08-28T00:56:32.528Z,2.70
2022-08-28T00:57:32.493Z,3.00
2022-08-28T00:58:32.479Z,2.60
2022-08-28T00:59:32.534Z,3.00
2022-08-28T01:00:32.503Z,2.90
2022-08-28T01:01:32.492Z,2.50
2022-08-28T01:02:32.459Z,2.90
2022-08-28T01:03:32.424Z,2.50
2022-08-28T01:04:32.409Z,2.70
2022-08-28T01:05:32.399Z,3.00
2022-08-28T01:06:32.430Z,2.70
2022-08-28T01:07:32.381Z,3.20
2022-08-28T01:08:32.361Z,2.50
2022-08-28T01:09:32.349Z,2.40
2022-08-28T01:10:32.340Z,2.90
2022-08-28T01:11:32.419Z,2.60
2022-08-28T01:12:32.327Z,2.80
2022-08-28T01:13:32.307Z,2.50
2022-08-28T01:14:32.305Z,2.40
2022-08-28T01:15:32.346Z,2.60
2022-08-28T01:16:33.144Z,2.50
2022-08-28T01:17:32.261Z,2.70
2022-08-28T01:18:32.261Z,2.80
2022-08-28T01:19:32.238Z,2.60
2022-08-28T01:20:32.225Z,2.70
2022-08-28T01:21:32.224Z,2.60
2022-08-28T01:22:32.272Z,2.60
2022-08-28T01:23:32.187Z,2.50
2022-08-28T01:24:32.188Z,2.90
2022-08-28T01:25:32.174Z,2.70
2022-08-28T01:26:32.174Z,2.90
2022-08-28T01:27:32.141Z,2.40
2022-08-28T01:28:32.209Z,2.70
2022-08-28T01:29:32.127Z,2.40
2022-08-28T01:30:32.105Z,2.80
2022-08-28T01:31:32.150Z,2.60
2022-08-28T01:32:32.096Z,2.80
2022-08-28T01:33:32.075Z,2.70
2022-08-28T01:34:32.136Z,2.80
2022-08-28T01:35:32.065Z,3.00
2022-08-28T01:36:32.052Z,2.70
2022-08-28T01:37:32.029Z,3.00
2022-08-28T01:38:32.034Z,2.80
2022-08-28T01:39:32.161Z,2.90
2022-08-28T01:40:32.147Z,2.40
2022-08-28T01:41:31.989Z,2.80
2022-08-28T01:42:31.968Z,2.80
2022-08-28T01:43:31.959Z,2.80
2022-08-28T01:44:32.027Z,2.40
2022-08-28T01:45:31.942Z,2.20
2022-08-28T01:46:31.957Z,2.60
2022-08-28T01:47:31.941Z,2.50
2022-08-28T01:48:31.913Z,2.60
2022-08-28T01:49:31.888Z,2.30
2022-08-28T01:50:31.955Z,2.50
2022-08-28T01:51:35.286Z,2.50
2022-08-28T01:52:32.871Z,2.70
2022-08-28T01:53:32.584Z,2.70
2022-08-28T01:54:31.832Z,2.60
2022-08-28T01:55:31.848Z,2.70
2022-08-28T01:56:31.915Z,2.70
2022-08-28T01:57:31.796Z,2.60
2022-08-28T01:58:36.057Z,2.40
2022-08-28T01:59:32.800Z,2.30
2022-08-28T02:00:31.769Z,2.30
2022-08-28T02:01:31.833Z,1.90
2022-08-28T02:02:31.748Z,2.80
2022-08-28T02:03:31.730Z,2.30
2022-08-28T02:04:32.523Z,2.30
2022-08-28T02:05:31.713Z,2.40
2022-08-28T02:06:31.734Z,2.60
2022-08-28T02:07:31.705Z,2.60
2022-08-28T02:08:31.673Z,2.50
2022-08-28T02:09:31.679Z,2.50
2022-08-28T02:10:31.661Z,2.20
2022-08-28T02:11:31.640Z,2.10
2022-08-28T02:12:31.684Z,2.40
2022-08-28T02:13:31.617Z,2.40
2022-08-28T02:14:31.603Z,2.50
2022-08-28T02:15:31.666Z,2.70
2022-08-28T02:16:31.577Z,2.10
2022-08-28T02:17:31.576Z,2.10
2022-08-28T02:18:31.629Z,2.10
2022-08-28T02:19:31.555Z,2.00
2022-08-28T02:20:31.634Z,2.20
2022-08-28T02:21:31.534Z,3.00
2022-08-28T02:22:31.515Z,2.20
2022-08-28T02:23:31.507Z,2.00
2022-08-28T02:24:31.532Z,2.50
2022-08-28T02:25:31.472Z,2.70
2022-08-28T02:26:31.487Z,2.40
2022-08-28T02:27:31.464Z,2.60
2022-08-28T02:28:31.442Z,2.20
2022-08-28T02:29:31.449Z,2.30
2022-08-28T02:30:31.419Z,2.50
2022-08-28T02:31:31.425Z,2.20
2022-08-28T02:32:31.396Z,2.00
2022-08-28T02:33:31.412Z,2.30
2022-08-28T02:34:31.375Z,2.30
2022-08-28T02:35:31.450Z,2.30
2022-08-28T02:36:31.352Z,2.30
2022-08-28T02:37:31.342Z,2.60
2022-08-28T02:38:31.347Z,2.60
2022-08-28T02:39:31.321Z,2.60
2022-08-28T02:40:31.368Z,2.00
2022-08-28T02:41:31.329Z,2.30
2022-08-28T02:42:31.320Z,2.50
2022-08-28T02:43:31.290Z,2.70
2022-08-28T02:44:31.265Z,2.60
2022-08-28T02:45:31.256Z,2.20
2022-08-28T02:46:31.439Z,2.00
2022-08-28T02:47:31.240Z,2.80
2022-08-28T02:48:31.227Z,2.40
2022-08-28T02:49:31.345Z,2.60
2022-08-28T02:50:32.207Z,2.60
2022-08-28T02:51:31.184Z,2.40
2022-08-28T02:52:31.220Z,2.20
2022-08-28T02:53:31.168Z,2.10
2022-08-28T02:54:31.146Z,2.50
2022-08-28T02:57:08.057Z,5.60
2022-08-28T02:58:08.035Z,2.30
2022-08-28T02:59:08.019Z,2.10
2022-08-28T03:00:07.989Z,2.60
2022-08-28T03:01:08.081Z,2.20
2022-08-28T03:02:08.001Z,2.90
2022-08-28T03:03:07.952Z,2.10
2022-08-28T03:04:07.981Z,2.30
2022-08-28T03:05:07.928Z,2.20
2022-08-28T03:06:07.928Z,2.30
2022-08-28T03:07:07.909Z,2.40
2022-08-28T03:08:07.946Z,2.30
2022-08-28T03:09:07.908Z,2.80
2022-08-28T03:10:07.881Z,2.50
2022-08-28T03:11:07.863Z,2.50
2022-08-28T03:12:07.858Z,2.10
2022-08-28T03:13:07.842Z,2.00
2022-08-28T03:14:07.822Z,2.50
2022-08-28T03:15:07.907Z,2.50
2022-08-28T03:16:07.807Z,2.10
2022-08-28T03:17:07.793Z,2.50
2022-08-28T03:18:07.948Z,2.60
2022-08-28T03:19:07.797Z,2.30
2022-08-28T03:20:07.763Z,2.60
2022-08-28T03:21:07.768Z,2.20
2022-08-28T03:22:07.737Z,2.10
2022-08-28T03:23:07.730Z,2.20
2022-08-28T03:24:07.714Z,2.40
2022-08-28T03:25:07.709Z,2.20
2022-08-28T03:26:07.739Z,2.30
2022-08-28T03:27:07.682Z,2.20
2022-08-28T03:28:07.671Z,2.40
2022-08-28T03:29:07.670Z,2.30
2022-08-28T03:30:07.660Z,2.30
2022-08-28T03:31:07.805Z,2.20
2022-08-28T03:32:07.620Z,2.00
2022-08-28T03:33:07.612Z,2.30
2022-08-28T03:34:07.623Z,2.40
2022-08-28T03:35:07.598Z,2.30
2022-08-28T03:36:07.575Z,2.60
2022-08-28T03:37:07.632Z,2.70
2022-08-28T03:38:07.572Z,2.00
2022-08-28T03:39:07.561Z,2.10
2022-08-28T03:40:07.586Z,2.20
2022-08-28T03:41:07.518Z,2.20
2022-08-28T03:42:07.508Z,2.20
2022-08-28T03:43:07.534Z,2.40
2022-08-28T03:44:07.497Z,2.10
2022-08-28T03:45:07.469Z,2.20
2022-08-28T03:46:07.525Z,2.40
2022-08-28T03:47:07.466Z,2.30
2022-08-28T03:48:07.444Z,2.70
2022-08-28T03:49:07.496Z,2.30
2022-08-28T03:50:07.417Z,2.50
2022-08-28T03:51:07.412Z,2.40
2022-08-28T03:52:07.404Z,2.20
2022-08-28T03:53:07.383Z,1.90
2022-08-28T03:54:07.458Z,2.30
2022-08-28T03:55:07.357Z,2.50
2022-08-28T03:56:07.344Z,2.00
2022-08-28T03:57:07.392Z,2.20
2022-08-28T03:58:07.332Z,2.90
2022-08-28T03:59:07.395Z,1.90
2022-08-28T04:00:07.300Z,1.90
2022-08-28T04:01:07.361Z,2.20
2022-08-28T04:02:07.300Z,2.20
2022-08-28T04:03:07.383Z,2.20
2022-08-28T04:04:07.268Z,2.20
2022-08-28T04:05:07.325Z,2.20
2022-08-28T04:06:07.228Z,2.20
2022-08-28T04:07:07.235Z,2.10
2022-08-28T04:08:07.272Z,2.80
2022-08-28T04:09:07.200Z,2.20
2022-08-28T04:10:07.194Z,2.40
2022-08-28T04:11:07.208Z,2.30
2022-08-28T04:12:07.204Z,2.10
2022-08-28T04:13:07.163Z,2.70
2022-08-28T04:14:07.150Z,2.20
2022-08-28T04:15:07.358Z,1.90
2022-08-28T04:16:07.271Z,2.40
2022-08-28T04:17:07.204Z,2.20
2022-08-28T04:18:07.104Z,2.60
2022-08-28T04:19:07.082Z,2.40
2022-08-28T04:20:07.085Z,2.00
2022-08-28T04:21:07.069Z,2.30
2022-08-28T04:22:07.114Z,2.30
2022-08-28T04:23:07.046Z,2.10
2022-08-28T04:24:09.602Z,2.30
2022-08-28T04:25:07.014Z,2.10
2022-08-28T04:26:07.001Z,2.20
2022-08-28T04:27:07.032Z,2.60
2022-08-28T04:28:07.026Z,2.60
2022-08-28T04:29:06.972Z,2.40
2022-08-28T04:30:06.959Z,2.30
2022-08-28T04:31:06.966Z,2.30
2022-08-28T04:32:07.002Z,2.10
2022-08-28T04:33:06.927Z,1.80
2022-08-28T04:34:06.937Z,2.30
2022-08-28T04:35:06.914Z,2.00
2022-08-28T04:36:06.941Z,2.30
2022-08-28T04:37:06.898Z,2.20
2022-08-28T04:38:06.953Z,2.30
2022-08-28T04:39:06.934Z,2.40
2022-08-28T04:40:06.912Z,2.30
2022-08-28T04:41:06.861Z,2.40
2022-08-28T04:42:06.826Z,2.00
2022-08-28T04:43:06.816Z,2.50
2022-08-28T04:44:06.799Z,2.50
2022-08-28T04:45:06.822Z,2.10
2022-08-28T04:46:06.836Z,2.50
2022-08-28T04:47:06.782Z,2.70
2022-08-28T04:48:13.086Z,2.60
2022-08-28T04:49:07.748Z,2.30
2022-08-28T04:50:06.751Z,2.30
2022-08-28T04:51:06.768Z,2.60
2022-08-28T04:52:06.716Z,2.70
2022-08-28T04:53:06.699Z,2.80
2022-08-28T04:54:06.758Z,2.40
2022-08-28T04:55:06.709Z,2.60
2022-08-28T04:56:06.758Z,2.40
2022-08-28T04:57:06.680Z,2.50
2022-08-28T04:58:06.657Z,2.80
2022-08-28T04:59:06.640Z,2.60
2022-08-28T05:00:06.657Z,2.80
2022-08-28T05:01:06.832Z,2.70
2022-08-28T05:02:06.659Z,3.10
2022-08-28T05:03:06.593Z,3.30
2022-08-28T05:04:06.601Z,2.90
2022-08-28T05:05:06.583Z,2.70
2022-08-28T05:06:06.596Z,2.90
2022-08-28T05:07:06.558Z,2.70
2022-08-28T05:08:06.553Z,2.90
2022-08-28T05:09:06.577Z,3.50
2022-08-28T05:10:06.535Z,3.40
2022-08-28T05:11:06.509Z,2.60
2022-08-28T05:12:06.588Z,3.00
2022-08-28T05:13:06.484Z,3.10
2022-08-28T05:14:06.475Z,2.90
2022-08-28T05:15:06.481Z,3.90
2022-08-28T05:16:06.520Z,3.10
2022-08-28T05:17:06.440Z,2.90
2022-08-28T05:18:06.492Z,3.30
2022-08-28T05:19:06.442Z,3.40
2022-08-28T05:20:06.420Z,2.80
2022-08-28T05:21:06.394Z,2.80
2022-08-28T05:22:06.385Z,3.20
2022-08-28T05:23:06.385Z,3.60
2022-08-28T05:24:06.409Z,3.00
2022-08-28T05:25:06.359Z,2.70
2022-08-28T05:26:06.339Z,3.10
2022-08-28T05:27:06.327Z,3.20
2022-08-28T05:28:06.383Z,3.30
2022-08-28T05:29:07.375Z,3.20
2022-08-28T05:30:06.303Z,3.20
2022-08-28T05:31:06.304Z,3.20
2022-08-28T05:32:06.271Z,3.30
2022-08-28T05:33:06.286Z,3.40
2022-08-28T05:34:06.917Z,3.40
2022-08-28T05:35:06.306Z,3.30
2022-08-28T05:36:06.232Z,3.40
2022-08-28T05:37:06.209Z,3.40
2022-08-28T05:38:06.311Z,4.10
2022-08-28T05:39:06.210Z,3.30
2022-08-28T05:40:06.264Z,3.20
2022-08-28T05:41:06.192Z,3.50
2022-08-28T05:42:06.157Z,3.30
2022-08-28T05:43:06.192Z,3.20
2022-08-28T05:44:06.165Z,3.20
2022-08-28T05:45:06.125Z,4.10
2022-08-28T05:46:06.278Z,3.50
2022-08-28T05:47:06.099Z,3.80
2022-08-28T05:48:06.164Z,3.60
2022-08-28T05:49:09.847Z,3.30
2022-08-28T05:50:06.067Z,3.00
2022-08-28T05:51:06.070Z,3.40
2022-08-28T05:52:06.074Z,3.30
2022-08-28T05:53:06.069Z,3.70
2022-08-28T05:54:06.039Z,3.70
2022-08-28T05:55:06.011Z,3.70
2022-08-28T05:56:05.997Z,3.60
2022-08-28T05:57:06.016Z,3.80
2022-08-28T05:58:06.069Z,3.70
2022-08-28T05:59:05.976Z,3.70
2022-08-28T06:00:05.954Z,3.90
2022-08-28T06:01:05.948Z,3.50
2022-08-28T06:02:06.130Z,3.90
2022-08-28T06:03:05.947Z,3.80
2022-08-28T06:04:06.204Z,3.60
2022-08-28T06:05:05.895Z,3.70
2022-08-28T06:06:05.883Z,3.60
2022-08-28T06:07:05.879Z,3.60
2022-08-28T06:08:05.966Z,3.80
2022-08-28T06:09:05.879Z,4.30
2022-08-28T06:10:05.838Z,3.40
2022-08-28T06:11:05.829Z,4.00
2022-08-28T06:12:05.826Z,4.20
2022-08-28T06:13:05.816Z,3.80
2022-08-28T06:14:05.809Z,4.40
2022-08-28T06:15:05.822Z,4.00
2022-08-28T06:16:05.854Z,4.00
2022-08-28T06:17:05.783Z,4.40
2022-08-28T06:18:05.842Z,3.80
2022-08-28T06:19:05.747Z,4.10
2022-08-28T06:20:05.725Z,4.10
2022-08-28T06:21:05.757Z,3.60
2022-08-28T06:22:07.311Z,3.70
2022-08-28T06:23:05.697Z,4.30
2022-08-28T06:24:05.680Z,4.90
2022-08-28T06:25:07.999Z,3.80
2022-08-28T06:26:05.663Z,4.50
2022-08-28T06:27:05.682Z,4.30
2022-08-28T06:28:05.683Z,4.00
2022-08-28T06:29:05.618Z,3.80
2022-08-28T06:30:05.671Z,4.30
2022-08-28T06:31:24.419Z,4.10
2022-08-28T06:32:06.682Z,4.40
2022-08-28T06:33:05.575Z,4.40
2022-08-28T06:34:05.560Z,4.10
2022-08-28T06:35:05.542Z,4.20
2022-08-28T06:36:05.540Z,4.30
2022-08-28T06:37:05.523Z,4.50
2022-08-28T06:38:05.567Z,3.80
2022-08-28T06:39:05.510Z,4.20
2022-08-28T06:40:05.504Z,4.00
2022-08-28T06:41:05.492Z,4.20
2022-08-28T06:42:05.493Z,4.30
2022-08-28T06:43:05.455Z,4.60
2022-08-28T06:44:05.487Z,4.30
2022-08-28T06:45:05.430Z,4.60
2022-08-28T06:46:05.486Z,4.30
2022-08-28T06:47:05.418Z,4.10
2022-08-28T06:48:05.410Z,4.20
2022-08-28T06:49:05.507Z,3.90
2022-08-28T06:50:05.394Z,4.60
2022-08-28T06:51:05.373Z,4.30
2022-08-28T06:52:05.357Z,4.00
2022-08-28T06:53:05.337Z,4.20
2022-08-28T06:54:05.334Z,4.00
2022-08-28T06:55:05.412Z,4.20
2022-08-28T06:56:05.323Z,3.90
2022-08-28T06:57:05.296Z,4.10
2022-08-28T06:58:05.362Z,4.20
2022-08-28T06:59:05.280Z,4.40
2022-08-28T07:00:05.273Z,4.40
2022-08-28T07:01:05.362Z,4.50
2022-08-28T07:02:05.364Z,4.00
2022-08-28T07:03:05.237Z,4.10
2022-08-28T07:04:05.228Z,4.20
2022-08-28T07:05:05.214Z,4.50
2022-08-28T07:06:05.208Z,4.30
2022-08-28T07:07:05.265Z,4.30
2022-08-28T07:08:05.174Z,4.30
2022-08-28T07:09:05.181Z,4.50
2022-08-28T07:10:05.184Z,4.00
2022-08-28T07:11:05.148Z,4.20
2022-08-28T07:12:05.184Z,4.40
2022-08-28T07:13:05.118Z,4.30
2022-08-28T07:14:05.142Z,4.50
2022-08-28T07:15:05.120Z,4.40
2022-08-28T07:16:05.193Z,4.40
2022-08-28T07:17:05.076Z,4.30
2022-08-28T07:18:05.122Z,4.40
2022-08-28T07:19:05.060Z,4.80
2022-08-28T07:20:05.055Z,4.80
2022-08-28T07:21:07.109Z,4.60
2022-08-28T07:22:06.015Z,4.30
2022-08-28T07:23:05.040Z,4.00
2022-08-28T07:24:05.015Z,4.90
2022-08-28T07:25:04.983Z,4.50
2022-08-28T07:26:04.983Z,4.30
2022-08-28T07:27:04.963Z,4.80
2022-08-28T07:28:04.969Z,4.40
2022-08-28T07:29:10.706Z,4.30
2022-08-28T07:30:05.994Z,4.60
2022-08-28T07:31:05.021Z,4.30
2022-08-28T07:32:04.908Z,4.80
2022-08-28T07:33:04.924Z,4.20
2022-08-28T07:34:04.896Z,4.60
2022-08-28T07:35:04.901Z,4.70
2022-08-28T07:36:04.874Z,5.00
2022-08-28T07:37:04.869Z,4.60
2022-08-28T07:38:04.853Z,3.90
2022-08-28T07:39:04.837Z,4.60
2022-08-28T07:40:04.917Z,4.50
2022-08-28T07:41:04.812Z,4.60
2022-08-28T07:42:04.821Z,4.80
2022-08-28T07:43:04.807Z,4.30
2022-08-28T07:44:04.789Z,4.50
2022-08-28T07:45:04.769Z,4.50
2022-08-28T07:46:04.897Z,4.70
2022-08-28T07:47:04.762Z,4.70
2022-08-28T07:48:07.541Z,4.60
2022-08-28T07:49:05.736Z,4.70
2022-08-28T07:50:04.718Z,4.40
2022-08-28T07:51:04.711Z,4.80
2022-08-28T07:52:04.726Z,4.40
2022-08-28T07:53:04.691Z,4.50
2022-08-28T07:54:04.684Z,4.40
2022-08-28T07:55:04.664Z,4.80
2022-08-28T07:56:04.689Z,4.60
2022-08-28T07:57:04.686Z,4.40
2022-08-28T07:58:04.636Z,4.80
2022-08-28T07:59:04.624Z,4.50
2022-08-28T08:00:04.675Z,4.50
2022-08-28T08:01:04.680Z,4.50
2022-08-28T08:02:04.594Z,4.20
2022-08-28T08:03:04.674Z,4.40
2022-08-28T08:04:04.572Z,4.50
2022-08-28T08:05:04.557Z,4.70
2022-08-28T08:06:04.554Z,4.40
2022-08-28T08:07:04.550Z,4.40
2022-08-28T08:08:04.529Z,4.40
2022-08-28T08:09:04.619Z,5.30
2022-08-28T08:10:04.543Z,4.70
2022-08-28T08:11:04.504Z,4.30
2022-08-28T08:12:04.488Z,4.80
2022-08-28T08:13:04.489Z,4.40
2022-08-28T08:14:04.873Z,4.60
2022-08-28T08:15:04.510Z,4.70
2022-08-28T08:16:04.479Z,4.50
2022-08-28T08:17:04.440Z,4.50
2022-08-28T08:18:04.424Z,4.60
2022-08-28T08:19:04.444Z,4.60
2022-08-28T08:20:04.476Z,4.60
2022-08-28T08:21:04.400Z,4.90
2022-08-28T08:22:04.385Z,4.60
2022-08-28T08:23:04.374Z,4.90
2022-08-28T08:24:04.387Z,4.50
2022-08-28T08:25:04.356Z,4.80
2022-08-28T08:26:04.382Z,4.80
2022-08-28T08:27:04.334Z,4.40
2022-08-28T08:28:04.327Z,4.50
2022-08-28T08:29:04.347Z,4.90
2022-08-28T08:30:04.307Z,4.60
2022-08-28T08:31:04.370Z,4.60
2022-08-28T08:32:04.327Z,4.30
2022-08-28T08:33:04.288Z,4.70
2022-08-28T08:34:04.262Z,4.60
2022-08-28T08:35:04.257Z,4.40
2022-08-28T08:36:04.245Z,4.10
2022-08-28T08:37:04.303Z,4.70
2022-08-28T08:38:04.236Z,4.40
2022-08-28T08:39:06.499Z,4.30
2022-08-28T08:40:08.797Z,4.20
2022-08-28T08:41:05.189Z,4.40
2022-08-28T08:42:04.186Z,4.30
2022-08-28T08:43:04.220Z,4.60
2022-08-28T08:44:04.166Z,4.30
2022-08-28T08:45:04.163Z,4.30
2022-08-28T08:46:04.248Z,4.20
2022-08-28T08:47:04.144Z,4.60
2022-08-28T08:48:04.121Z,5.00
2022-08-28T08:49:04.151Z,4.80
2022-08-28T08:50:04.102Z,4.20
2022-08-28T08:51:04.116Z,4.60
2022-08-28T08:52:04.092Z,4.60
2022-08-28T08:53:04.089Z,4.90
2022-08-28T08:54:04.064Z,4.80
2022-08-28T08:55:04.147Z,4.40
2022-08-28T08:56:04.055Z,4.70
2022-08-28T08:57:04.063Z,4.70
2022-08-28T08:58:04.024Z,4.50
2022-08-28T08:59:04.013Z,4.40
2022-08-28T09:00:04.060Z,4.80
2022-08-28T09:01:04.120Z,4.90
2022-08-28T09:02:03.995Z,4.70
2022-08-28T09:03:04.065Z,4.90
2022-08-28T09:04:03.979Z,5.10
2022-08-28T09:05:03.998Z,4.10
2022-08-28T09:06:03.964Z,4.70
2022-08-28T09:07:03.935Z,4.70
2022-08-28T09:08:03.982Z,4.80
2022-08-28T09:09:03.943Z,4.70
2022-08-28T09:10:03.914Z,4.40
2022-08-28T09:11:04.045Z,4.80
2022-08-28T09:12:03.885Z,4.50
2022-08-28T09:13:03.885Z,4.60
2022-08-28T09:14:03.888Z,4.50
2022-08-28T09:15:03.864Z,4.40
2022-08-28T09:16:03.909Z,4.90
2022-08-28T09:17:03.851Z,5.00
2022-08-28T09:18:03.850Z,4.20
2022-08-28T09:19:03.842Z,4.40
2022-08-28T09:20:03.813Z,4.10
2022-08-28T09:21:03.991Z,4.30
2022-08-28T09:22:03.832Z,3.90
2022-08-28T09:23:12.317Z,4.00
2022-08-28T09:24:05.756Z,4.00
2022-08-28T09:25:03.763Z,4.00
2022-08-28T09:26:03.772Z,4.10
2022-08-28T09:27:03.770Z,4.30
2022-08-28T09:28:03.749Z,4.40
2022-08-28T09:29:03.733Z,4.30
2022-08-28T09:30:07.734Z,4.10
2022-08-28T09:31:03.935Z,4.00
2022-08-28T09:32:03.700Z,3.80
2022-08-28T09:33:03.696Z,3.50
2022-08-28T09:34:03.711Z,3.90
2022-08-28T09:35:03.671Z,4.00
2022-08-28T09:36:03.706Z,3.70
2022-08-28T09:37:03.667Z,4.00
2022-08-28T09:38:03.659Z,3.80
2022-08-28T09:39:03.630Z,3.70
2022-08-28T09:40:03.702Z,3.70
2022-08-28T09:41:03.636Z,3.60
2022-08-28T09:42:03.652Z,4.10
2022-08-28T09:43:03.595Z,3.50
2022-08-28T09:44:03.619Z,3.80
2022-08-28T09:45:09.201Z,3.50
2022-08-28T09:46:04.691Z,3.60
2022-08-28T09:47:03.622Z,3.60
2022-08-28T09:48:03.563Z,3.40
2022-08-28T09:49:03.549Z,3.40
2022-08-28T09:50:03.562Z,3.50
2022-08-28T09:51:03.527Z,3.50
2022-08-28T09:52:03.528Z,3.40
2022-08-28T09:53:03.604Z,3.40
2022-08-28T09:54:03.520Z,3.30
2022-08-28T09:55:03.496Z,3.60
2022-08-28T09:56:03.472Z,3.50
2022-08-28T09:57:03.472Z,3.10
2022-08-28T09:58:03.468Z,3.60
2022-08-28T09:59:03.471Z,3.40
2022-08-28T10:00:03.437Z,3.40
2022-08-28T10:01:03.424Z,3.30
2022-08-28T10:02:03.523Z,3.40
2022-08-28T10:03:07.504Z,3.10
2022-08-28T10:04:03.474Z,3.80
2022-08-28T10:05:03.501Z,3.30
2022-08-28T10:06:03.375Z,3.60
2022-08-28T10:07:03.374Z,3.20
2022-08-28T10:08:03.358Z,3.20
2022-08-28T10:09:03.349Z,3.80
2022-08-28T10:10:06.490Z,3.30
2022-08-28T10:11:03.340Z,3.10
2022-08-28T10:12:03.322Z,3.40
2022-08-28T10:13:03.310Z,3.40
2022-08-28T10:14:03.299Z,3.60
2022-08-28T10:15:03.320Z,3.40
2022-08-28T10:16:03.342Z,3.60
2022-08-28T10:17:03.274Z,3.80
2022-08-28T10:18:03.296Z,3.00
2022-08-28T10:19:03.819Z,3.30
2022-08-28T10:20:03.239Z,3.50
2022-08-28T10:21:03.309Z,3.40
2022-08-28T10:22:03.240Z,3.00
2022-08-28T10:23:03.210Z,3.20
2022-08-28T10:24:03.206Z,3.40
2022-08-28T10:25:03.202Z,3.20
2022-08-28T10:26:03.215Z,3.50
2022-08-28T10:27:03.218Z,3.70
2022-08-28T10:28:03.163Z,3.70
2022-08-28T10:29:03.179Z,3.40
2022-08-28T10:30:07.724Z,3.20
2022-08-28T10:31:04.214Z,3.20
2022-08-28T10:32:03.145Z,3.10
2022-08-28T10:33:03.118Z,3.60
2022-08-28T10:34:03.134Z,3.00
2022-08-28T10:35:03.101Z,3.30
2022-08-28T10:36:03.095Z,3.20
2022-08-28T10:37:03.153Z,3.10
2022-08-28T10:38:03.074Z,3.00
2022-08-28T10:39:03.101Z,3.00
2022-08-28T10:40:04.742Z,3.40
2022-08-28T10:41:03.045Z,3.20
2022-08-28T10:42:03.070Z,3.00
2022-08-28T10:43:03.053Z,3.10
2022-08-28T10:44:03.014Z,3.20
2022-08-28T10:45:03.063Z,3.10
2022-08-28T10:46:03.065Z,3.30
2022-08-28T10:47:02.990Z,3.20
2022-08-28T10:48:02.992Z,3.40
2022-08-28T10:49:02.971Z,3.10
2022-08-28T10:50:02.995Z,3.40
2022-08-28T10:51:02.941Z,3.30
2022-08-28T10:52:02.943Z,3.10
2022-08-28T10:53:02.997Z,3.20
2022-08-28T10:54:02.914Z,2.90
2022-08-28T10:55:02.926Z,2.80
2022-08-28T10:56:02.933Z,3.20
2022-08-28T10:57:02.894Z,3.00
2022-08-28T10:58:02.903Z,3.20
2022-08-28T10:59:02.870Z,3.10
2022-08-28T11:00:02.873Z,3.30
2022-08-28T11:01:02.947Z,2.80
2022-08-28T11:02:02.840Z,2.90
2022-08-28T11:03:02.941Z,2.90
2022-08-28T11:04:02.823Z,3.10
2022-08-28T11:05:02.811Z,3.00
2022-08-28T11:06:02.805Z,2.90
2022-08-28T11:07:02.790Z,2.80
2022-08-28T11:08:02.819Z,3.00
2022-08-28T11:09:02.799Z,3.30
2022-08-28T11:10:02.765Z,3.10
2022-08-28T11:11:02.752Z,3.10
2022-08-28T11:12:02.749Z,2.90
2022-08-28T11:13:02.873Z,2.70
2022-08-28T11:14:02.725Z,3.00
2022-08-28T11:15:02.727Z,2.80
2022-08-28T11:16:02.767Z,2.70
2022-08-28T11:17:02.787Z,3.20
2022-08-28T11:18:02.696Z,3.20
2022-08-28T11:19:02.780Z,3.00
2022-08-28T11:20:02.665Z,2.80
2022-08-28T11:21:02.670Z,3.10
2022-08-28T11:22:02.670Z,3.20
2022-08-28T11:23:02.642Z,3.00
2022-08-28T11:24:02.632Z,3.50
2022-08-28T11:25:07.636Z,3.00
2022-08-28T11:26:03.607Z,3.10
2022-08-28T11:27:02.608Z,2.80
2022-08-28T11:28:02.612Z,2.90
2022-08-28T11:29:02.580Z,3.00
2022-08-28T11:30:02.584Z,2.90
2022-08-28T11:31:02.636Z,3.00
2022-08-28T11:32:02.556Z,2.70
2022-08-28T11:33:02.547Z,2.80
2022-08-28T11:34:02.532Z,2.90
2022-08-28T11:35:02.525Z,2.80
2022-08-28T11:36:02.585Z,3.00
2022-08-28T11:37:02.497Z,3.10
2022-08-28T11:38:02.484Z,2.70
2022-08-28T11:39:02.477Z,3.10
2022-08-28T11:40:02.507Z,3.30
2022-08-28T11:41:02.498Z,3.60
2022-08-28T11:42:02.453Z,3.90
2022-08-28T11:43:02.449Z,3.10
2022-08-28T11:44:02.426Z,2.90
2022-08-28T11:45:02.433Z,2.70
2022-08-28T11:46:02.463Z,2.80
2022-08-28T11:47:02.392Z,3.30
2022-08-28T11:48:02.381Z,2.80
2022-08-28T11:49:02.414Z,3.00
2022-08-28T11:50:02.372Z,2.80
2022-08-28T11:51:02.349Z,2.70
2022-08-28T11:52:02.408Z,2.80
2022-08-28T11:53:02.331Z,2.50
2022-08-28T11:54:02.317Z,2.50
2022-08-28T11:55:02.316Z,2.80
2022-08-28T11:56:02.300Z,2.70
2022-08-28T11:57:02.303Z,2.80
2022-08-28T11:58:31.666Z,5.60
2022-08-28T11:59:35.031Z,3.00
2022-08-28T12:00:31.643Z,2.80
2022-08-28T12:01:31.631Z,2.80
2022-08-28T12:02:31.725Z,2.70
2022-08-28T12:03:31.617Z,2.80
2022-08-28T12:04:31.632Z,2.80
2022-08-28T12:05:31.584Z,2.60
2022-08-28T12:06:31.575Z,2.30
2022-08-28T12:07:31.570Z,2.90
2022-08-28T12:08:31.623Z,2.60
2022-08-28T12:09:31.540Z,2.50
2022-08-28T12:10:31.544Z,2.60
2022-08-28T12:11:31.527Z,2.40
2022-08-28T12:12:31.511Z,2.60
2022-08-28T12:13:31.499Z,3.90
2022-08-28T12:14:31.553Z,2.90
2022-08-28T12:15:31.471Z,2.70
2022-08-28T12:16:31.463Z,2.60
2022-08-28T12:17:31.595Z,2.90
2022-08-28T12:18:31.467Z,2.30
2022-08-28T12:19:31.445Z,2.50
2022-08-28T12:20:31.512Z,2.10
2022-08-28T12:21:31.408Z,2.60
2022-08-28T12:22:31.420Z,2.40
2022-08-28T12:23:31.392Z,2.60
2022-08-28T12:24:31.383Z,2.80
2022-08-28T12:25:31.368Z,2.30
2022-08-28T12:26:31.442Z,2.70
2022-08-28T12:27:31.350Z,2.40
2022-08-28T12:28:31.359Z,2.60
2022-08-28T12:29:31.323Z,2.20
2022-08-28T12:30:31.352Z,2.60
2022-08-28T12:31:31.336Z,2.30
2022-08-28T12:32:31.289Z,2.50
2022-08-28T12:33:31.284Z,2.40
2022-08-28T12:34:31.265Z,2.40
2022-08-28T12:35:31.252Z,2.40
2022-08-28T12:36:31.281Z,2.10
2022-08-28T12:37:31.269Z,2.70
2022-08-28T12:38:32.230Z,2.30
2022-08-28T12:39:31.224Z,2.20
2022-08-28T12:40:31.284Z,2.60
2022-08-28T12:41:31.212Z,2.40
2022-08-28T12:42:31.307Z,2.20
2022-08-28T12:43:31.166Z,2.20
2022-08-28T12:44:31.162Z,2.20
2022-08-28T12:45:31.139Z,2.20
2022-08-28T12:46:31.188Z,2.40
2022-08-28T12:47:31.118Z,2.60
2022-08-28T12:48:31.180Z,2.50
2022-08-28T12:49:31.100Z,2.70
2022-08-28T12:50:31.086Z,2.20
2022-08-28T12:51:31.098Z,2.30
2022-08-28T12:52:31.063Z,2.60
2022-08-28T12:53:31.049Z,2.60
2022-08-28T12:54:31.085Z,2.40
2022-08-28T12:55:31.060Z,2.40
2022-08-28T12:56:31.020Z,2.00
2022-08-28T12:57:31.024Z,2.40
2022-08-28T12:58:30.996Z,2.00
2022-08-28T12:59:30.994Z,2.40
2022-08-28T13:00:31.004Z,2.40
2022-08-28T13:01:31.158Z,2.20
2022-08-28T13:02:31.018Z,2.30
2022-08-28T13:03:30.935Z,2.50
2022-08-28T13:04:30.926Z,2.00
2022-08-28T13:05:30.983Z,2.00
2022-08-28T13:06:30.908Z,1.90
2022-08-28T13:07:30.895Z,2.10
2022-08-28T13:08:30.887Z,2.10
2022-08-28T13:09:30.880Z,2.10
2022-08-28T13:10:30.882Z,2.40
2022-08-28T13:11:30.851Z,2.30
2022-08-28T13:12:55.064Z,2.20
2022-08-28T13:13:31.831Z,2.30
2022-08-28T13:14:30.811Z,2.30
2022-08-28T13:15:30.842Z,2.00
2022-08-28T13:16:30.808Z,2.10
2022-08-28T13:17:30.778Z,2.10
2022-08-28T13:18:33.131Z,2.30
2022-08-28T13:19:30.782Z,2.20
2022-08-28T13:20:30.757Z,2.20